Time;durP1;ratioP1;P1;durP2;ratioP2;P2;SDS_P1;SDS_P2;PMS_P1;PMS_P2;Temp;Humidity;BMP_temperature;BMP_pressure;BME280_temperature;BME280_humidity;BME280_pressure;Samples;Min_cycle;Max_cycle;Signal;HPM_P1;HPM_P2
2023/07/14 00:01:56;;;;;;;10.05;6.43;;;;;;;15.75;100.00;101715.94;4882561;29;20738;-81
2023/07/14 00:04:31;;;;;;;12.35;6.18;;;;;;;15.76;100.00;101723.00;4868537;29;20059;-80
2023/07/14 00:07:00;;;;;;;8.60;5.60;;;;;;;15.75;100.00;101718.59;4898758;29;20052;-80
2023/07/14 00:09:31;;;;;;;7.32;5.32;;;;;;;15.77;100.00;101716.81;4899872;29;20048;-80
2023/07/14 00:11:59;;;;;;;9.10;5.80;;;;;;;15.76;100.00;101713.28;4892208;29;20064;-81
2023/07/14 00:14:27;;;;;;;12.98;5.95;;;;;;;15.78;100.00;101715.91;4881063;29;20055;-81
2023/07/14 00:16:56;;;;;;;11.48;5.82;;;;;;;15.78;100.00;101713.25;4898841;29;20534;-81
2023/07/14 00:19:25;;;;;;;11.20;5.60;;;;;;;15.76;100.00;101701.75;4883480;29;20060;-81
2023/07/14 00:21:53;;;;;;;12.38;6.03;;;;;;;15.74;100.00;101711.50;4884380;29;20052;-82
2023/07/14 00:24:20;;;;;;;10.20;5.57;;;;;;;15.73;100.00;101713.28;4900802;29;20049;-80
2023/07/14 00:26:57;;;;;;;10.68;5.32;;;;;;;15.71;100.00;101714.16;4898769;29;20049;-81
2023/07/14 00:29:25;;;;;;;15.20;5.75;;;;;;;15.69;100.00;101719.47;4905102;29;20829;-81
2023/07/14 00:31:53;;;;;;;7.43;5.57;;;;;;;15.67;100.00;101717.69;4905442;29;20047;-81
2023/07/14 00:34:23;;;;;;;7.60;5.50;;;;;;;15.64;100.00;101718.59;4887006;29;20057;-82
2023/07/14 00:36:51;;;;;;;7.05;5.53;;;;;;;15.60;100.00;101723.03;4899895;29;20053;-81
2023/07/14 00:39:19;;;;;;;7.75;6.00;;;;;;;15.56;100.00;101713.31;4902940;29;20056;-81
2023/07/14 00:41:47;;;;;;;8.40;6.10;;;;;;;15.53;100.00;101718.63;4899515;29;20056;-81
2023/07/14 00:44:15;;;;;;;18.92;6.68;;;;;;;15.51;100.00;101722.19;4860667;29;20048;-82
2023/07/14 00:46:44;;;;;;;7.53;5.70;;;;;;;15.46;100.00;101708.91;4869638;29;20049;-81
2023/07/14 00:49:39;;;;;;;9.35;6.05;;;;;;;15.43;100.00;101697.44;4882155;29;20056;-81
2023/07/14 00:52:18;;;;;;;7.38;5.55;;;;;;;15.37;100.00;101699.22;4881470;29;20052;-81
2023/07/14 00:54:51;;;;;;;12.73;6.28;;;;;;;15.34;100.00;101703.66;4890060;29;20036;-81
2023/07/14 00:57:24;;;;;;;8.68;6.22;;;;;;;15.30;100.00;101696.59;4902257;29;20037;-80
2023/07/14 01:00:15;;;;;;;10.35;6.20;;;;;;;15.28;100.00;101695.72;4869762;29;20048;-81
2023/07/14 01:02:42;;;;;;;14.30;6.10;;;;;;;15.26;100.00;101693.06;4908227;29;20059;-81
2023/07/14 01:05:11;;;;;;;9.52;6.05;;;;;;;15.24;100.00;101692.16;4892799;29;20048;-81
2023/07/14 01:07:41;;;;;;;12.38;5.95;;;;;;;15.23;100.00;101695.69;4872670;29;20052;-81
2023/07/14 01:10:14;;;;;;;9.60;6.47;;;;;;;15.21;100.00;101693.03;4899675;29;20049;-81
2023/07/14 01:12:46;;;;;;;16.75;6.60;;;;;;;15.23;100.00;101684.22;4905585;29;20134;-81
2023/07/14 01:15:15;;;;;;;11.43;6.72;;;;;;;15.20;100.00;101680.69;4872600;29;20857;-81
2023/07/14 01:17:45;;;;;;;15.18;6.30;;;;;;;15.20;100.00;101685.97;4905276;29;20052;-81
2023/07/14 01:20:12;;;;;;;10.77;6.15;;;;;;;15.21;100.00;101686.84;4891282;29;20041;-79
2023/07/14 01:22:52;;;;;;;13.90;7.30;;;;;;;15.19;100.00;101688.63;4878647;29;20067;-81
2023/07/14 01:26:01;;;;;;;13.82;7.75;;;;;;;15.19;100.00;101683.31;4914651;29;20052;-81
2023/07/14 01:28:29;;;;;;;9.73;7.03;;;;;;;15.18;100.00;101692.19;4887089;29;20677;-81
2023/07/14 01:30:56;;;;;;;14.45;7.13;;;;;;;15.18;100.00;101693.06;4844566;29;20083;-81
2023/07/14 01:33:24;;;;;;;11.13;7.18;;;;;;;15.16;100.00;101692.19;4895692;29;20048;-81
2023/07/14 01:35:55;;;;;;;14.82;7.13;;;;;;;15.16;100.00;101689.53;4867903;29;20061;-81
2023/07/14 01:38:23;;;;;;;11.35;6.65;;;;;;;15.16;100.00;101693.94;4873630;29;20040;-82
2023/07/14 01:40:52;;;;;;;16.02;7.85;;;;;;;15.15;100.00;101682.44;4905768;29;20060;-82
2023/07/14 01:43:21;;;;;;;12.63;7.43;;;;;;;15.17;100.00;101688.63;4866040;29;20049;-81
2023/07/14 01:45:59;;;;;;;13.73;7.43;;;;;;;15.20;100.00;101690.41;4881712;29;20500;-81
2023/07/14 01:48:37;;;;;;;12.00;7.43;;;;;;;15.21;100.00;101687.72;4875879;29;20064;-81
2023/07/14 01:51:11;;;;;;;12.80;8.02;;;;;;;15.24;100.00;101691.28;4903332;29;20056;-81
2023/07/14 01:53:46;;;;;;;18.48;7.03;;;;;;;15.27;100.00;101691.28;4890446;29;20061;-81
2023/07/14 01:56:17;;;;;;;12.38;7.68;;;;;;;15.30;100.00;101686.84;4902777;29;20686;-81
2023/07/14 01:59:03;;;;;;;11.02;7.93;;;;;;;15.31;100.00;101687.72;4906572;29;20052;-82
2023/07/14 02:01:35;;;;;;;15.02;7.72;;;;;;;15.29;100.00;101686.84;4913694;29;20059;-81
2023/07/14 02:04:05;;;;;;;16.95;8.20;;;;;;;15.28;100.00;101693.94;4866355;29;20061;-81
2023/07/14 02:06:33;;;;;;;12.35;7.78;;;;;;;15.26;100.00;101686.88;4902379;29;20459;-82
2023/07/14 02:09:01;;;;;;;11.55;7.18;;;;;;;15.21;100.00;101690.38;4869520;29;20429;-81
2023/07/14 02:11:29;;;;;;;12.07;7.00;;;;;;;15.17;100.00;101683.31;4890639;29;20060;-81
2023/07/14 02:13:57;;;;;;;16.08;9.02;;;;;;;15.14;100.00;101688.66;4881500;29;20052;-81
2023/07/14 02:16:27;;;;;;;9.35;7.65;;;;;;;15.11;100.00;101687.78;4901393;29;20402;-81
2023/07/14 02:18:56;;;;;;;15.13;8.73;;;;;;;15.05;100.00;101679.81;4868491;29;20060;-82
2023/07/14 02:21:29;;;;;;;18.40;9.13;;;;;;;14.98;100.00;101671.88;4893631;29;20059;-81
2023/07/14 02:23:59;;;;;;;14.32;9.55;;;;;;;14.93;100.00;101681.63;4891005;29;20071;-81
2023/07/14 02:26:36;;;;;;;17.30;9.75;;;;;;;14.91;100.00;101677.19;4868946;29;20060;-81
2023/07/14 02:29:10;;;;;;;13.70;9.27;;;;;;;14.87;100.00;101678.97;4897906;29;20049;-80
2023/07/14 02:31:44;;;;;;;11.43;8.90;;;;;;;14.84;100.00;101675.41;4897278;29;20044;-82
2023/07/14 02:34:14;;;;;;;15.27;9.88;;;;;;;14.79;100.00;101678.97;4847232;29;20523;-81
2023/07/14 02:36:56;;;;;;;14.15;8.85;;;;;;;14.74;100.00;101675.44;4912800;29;20057;-81
2023/07/14 02:39:26;;;;;;;17.67;9.48;;;;;;;14.70;100.00;101671.00;4891667;29;20053;-81
2023/07/14 02:41:59;;;;;;;12.20;10.43;;;;;;;14.68;100.00;101672.78;4899932;29;20056;-80
2023/07/14 02:44:33;;;;;;;13.43;10.27;;;;;;;14.64;100.00;101670.16;4890148;29;20056;-81
2023/07/14 02:47:08;;;;;;;15.82;10.55;;;;;;;14.61;100.00;101673.66;4870341;29;20053;-81
2023/07/14 02:49:36;;;;;;;15.98;10.60;;;;;;;14.59;100.00;101672.78;4876556;29;20052;-82
2023/07/14 02:52:03;;;;;;;18.40;10.85;;;;;;;14.57;100.00;101671.91;4889165;29;20064;-83
2023/07/14 02:54:31;;;;;;;13.60;10.40;;;;;;;14.54;100.00;101670.13;4881192;29;20091;-80
2023/07/14 02:56:59;;;;;;;17.05;11.10;;;;;;;14.51;100.00;101667.44;4862780;29;20044;-82
2023/07/14 02:59:26;;;;;;;17.23;12.25;;;;;;;14.50;100.00;101675.41;4871818;29;20056;-81
2023/07/14 03:01:54;;;;;;;17.58;12.07;;;;;;;14.48;100.00;101671.88;4895359;29;20075;-81
2023/07/14 03:04:23;;;;;;;14.68;11.90;;;;;;;14.46;100.00;101663.94;4852870;29;20064;-81
2023/07/14 03:06:51;;;;;;;16.35;11.48;;;;;;;14.46;100.00;101671.91;4883946;29;20049;-81
2023/07/14 03:09:19;;;;;;;18.08;12.20;;;;;;;14.47;100.00;101667.47;4897758;29;20056;-81
2023/07/14 03:11:46;;;;;;;17.13;11.57;;;;;;;14.46;100.00;101669.25;4878965;29;20067;-82
2023/07/14 03:14:14;;;;;;;14.75;11.60;;;;;;;14.45;100.00;101670.13;4899137;29;20056;-80
2023/07/14 03:16:41;;;;;;;17.67;12.15;;;;;;;14.46;100.00;101669.25;4896165;29;20048;-82
2023/07/14 03:19:09;;;;;;;16.20;12.20;;;;;;;14.45;100.00;101667.47;4878332;29;20056;-81
2023/07/14 03:21:38;;;;;;;24.23;13.35;;;;;;;14.46;100.00;101663.94;4873327;29;20542;-81
2023/07/14 03:24:05;;;;;;;14.90;12.95;;;;;;;14.48;100.00;101669.22;4893472;29;20056;-81
2023/07/14 03:26:33;;;;;;;20.73;13.38;;;;;;;14.47;100.00;101654.22;4894495;29;20053;-81
2023/07/14 03:29:00;;;;;;;19.33;13.32;;;;;;;14.46;100.00;101663.94;4870506;29;20052;-81
2023/07/14 03:31:28;;;;;;;19.08;12.32;;;;;;;14.45;100.00;101674.53;4874396;29;20561;-80
2023/07/14 03:33:56;;;;;;;16.88;12.68;;;;;;;14.43;100.00;101670.09;4910194;29;20075;-81
2023/07/14 03:36:25;;;;;;;18.48;12.20;;;;;;;14.40;100.00;101664.81;4832614;29;20049;-81
2023/07/14 03:39:18;;;;;;;21.10;12.65;;;;;;;14.38;100.00;101668.34;4896284;29;20045;-81
2023/07/14 03:41:46;;;;;;;19.77;12.57;;;;;;;14.37;100.00;101672.75;4894155;29;20048;-80
2023/07/14 03:44:13;;;;;;;18.33;12.27;;;;;;;14.36;100.00;101667.44;4883559;29;20055;-82
2023/07/14 03:46:40;;;;;;;18.30;12.77;;;;;;;14.35;100.00;101658.63;4885975;29;20048;-81
2023/07/14 03:49:08;;;;;;;19.95;11.90;;;;;;;14.36;100.00;101663.03;4883088;29;20053;-82
2023/07/14 03:51:36;;;;;;;20.25;12.38;;;;;;;14.35;100.00;101657.75;4872020;29;20048;-80
2023/07/14 03:54:03;;;;;;;19.73;13.02;;;;;;;14.35;100.00;101663.94;4859707;29;20048;-81
2023/07/14 03:56:31;;;;;;;19.35;12.63;;;;;;;14.36;100.00;101655.06;4893530;29;20891;-81
2023/07/14 03:58:58;;;;;;;16.55;11.52;;;;;;;14.38;100.00;101647.13;4883907;29;20056;-82
2023/07/14 04:01:26;;;;;;;16.40;11.07;;;;;;;14.38;100.00;101645.34;4891221;29;20067;-80
2023/07/14 04:03:55;;;;;;;14.15;11.05;;;;;;;14.41;100.00;101655.97;4872817;29;20048;-79
2023/07/14 04:06:28;;;;;;;22.40;12.52;;;;;;;14.43;100.00;101654.19;4881941;29;20071;-81
2023/07/14 04:08:59;;;;;;;15.68;11.07;;;;;;;14.46;100.00;101648.03;4853411;29;20056;-81
2023/07/14 04:11:33;;;;;;;17.95;11.15;;;;;;;14.51;100.00;101648.00;4905487;29;20598;-81
2023/07/14 04:14:02;;;;;;;14.90;11.23;;;;;;;14.54;100.00;101653.34;4888360;29;20063;-81
2023/07/14 04:16:29;;;;;;;20.83;11.63;;;;;;;14.58;100.00;101652.47;4871224;29;20052;-82
2023/07/14 04:18:59;;;;;;;17.70;10.85;;;;;;;14.61;100.00;101666.63;4874476;29;20060;-81
2023/07/14 04:21:27;;;;;;;16.58;10.52;;;;;;;14.78;100.00;101653.34;4893641;29;20467;-80
2023/07/14 04:23:56;;;;;;;17.50;11.00;;;;;;;15.07;100.00;101660.34;4829005;29;20063;-82
2023/07/14 04:26:25;;;;;;;17.55;9.95;;;;;;;15.30;100.00;101656.75;4876260;29;20689;-81
2023/07/14 04:28:53;;;;;;;17.67;9.88;;;;;;;15.58;100.00;101650.44;4883694;29;20496;-81
2023/07/14 04:31:20;;;;;;;9.15;8.25;;;;;;;15.85;100.00;101653.00;4904736;29;20059;-82
2023/07/14 04:33:50;;;;;;;11.10;8.43;;;;;;;16.09;100.00;101657.28;4907340;29;20070;-80
2023/07/14 04:36:18;;;;;;;11.68;8.25;;;;;;;16.29;100.00;101660.66;4892192;29;20057;-81
2023/07/14 04:39:07;;;;;;;14.50;9.18;;;;;;;16.47;100.00;101656.09;4849933;29;20509;-81
2023/07/14 04:41:35;;;;;;;12.65;7.80;;;;;;;16.70;100.00;101654.09;4885299;29;20045;-82
2023/07/14 04:44:13;;;;;;;10.20;8.05;;;;;;;16.96;100.00;101650.34;4871166;29;20048;-81
2023/07/14 04:46:42;;;;;;;15.98;7.60;;;;;;;17.27;100.00;101650.00;4893975;29;20432;-81
2023/07/14 04:49:11;;;;;;;16.83;8.38;;;;;;;17.57;100.00;101646.06;4891189;29;20068;-81
2023/07/14 04:51:39;;;;;;;14.10;7.53;;;;;;;17.88;100.00;101638.56;4894836;29;20056;-81
2023/07/14 04:54:06;;;;;;;10.48;7.10;;;;;;;18.14;100.00;101647.94;4864847;29;20052;-80
2023/07/14 04:56:35;;;;;;;13.23;7.13;;;;;;;18.37;100.00;101639.56;4894111;29;20052;-81
2023/07/14 04:59:05;;;;;;;16.17;7.22;;;;;;;18.50;100.00;101642.91;4904932;29;20051;-81
2023/07/14 05:01:33;;;;;;;13.38;7.32;;;;;;;18.64;100.00;101638.22;4871886;29;20058;-81
2023/07/14 05:04:02;;;;;;;9.57;6.28;;;;;;;18.86;100.00;101638.72;4884415;29;20530;-80
2023/07/14 05:06:31;;;;;;;9.70;7.43;;;;;;;19.13;100.00;101633.78;4846346;29;20120;-81
2023/07/14 05:08:59;;;;;;;11.13;6.63;;;;;;;19.40;100.00;101628.78;4837310;29;20048;-81
2023/07/14 05:11:27;;;;;;;13.30;6.65;;;;;;;19.72;100.00;101630.78;4853122;29;20087;-82
2023/07/14 05:13:55;;;;;;;12.18;6.30;;;;;;;20.00;100.00;101639.06;4895180;29;20048;-81
2023/07/14 05:16:22;;;;;;;10.75;6.13;;;;;;;20.23;100.00;101633.16;4881738;29;20056;-81
2023/07/14 05:18:49;;;;;;;14.50;6.15;;;;;;;20.45;100.00;101638.84;4892401;29;20052;-81
2023/07/14 05:21:17;;;;;;;8.13;5.43;;;;;;;20.66;100.00;101641.03;4886010;29;20130;-81
2023/07/14 05:23:45;;;;;;;6.68;5.88;;;;;;;20.84;100.00;101646.78;4853544;29;20059;-81
2023/07/14 05:26:13;;;;;;;9.23;4.75;;;;;;;21.01;100.00;101642.78;4876754;29;20424;-81
2023/07/14 05:28:41;;;;;;;9.00;5.82;;;;;;;21.16;100.00;101634.28;4902624;29;20044;-81
2023/07/14 05:31:09;;;;;;;5.93;4.65;;;;;;;21.28;100.00;101629.50;4910613;29;20064;-81
2023/07/14 05:33:37;;;;;;;11.43;5.43;;;;;;;21.40;100.00;101635.41;4870648;29;20048;-81
2023/07/14 05:36:05;;;;;;;9.63;4.80;;;;;;;21.55;100.00;101630.50;4893632;29;20151;-80
2023/07/14 05:38:33;;;;;;;7.05;5.35;;;;;;;21.71;100.00;101630.94;4882369;29;20064;-82
2023/07/14 05:41:04;;;;;;;11.23;5.35;;;;;;;21.85;100.00;101628.69;4842495;29;20060;-81
2023/07/14 05:43:32;;;;;;;8.10;4.20;;;;;;;21.95;100.00;101629.31;4867035;29;20424;-81
2023/07/14 05:45:59;;;;;;;9.02;5.55;;;;;;;22.07;100.00;101628.88;4877023;29;20057;-81
2023/07/14 05:48:27;;;;;;;7.93;4.75;;;;;;;22.17;100.00;101622.31;4887524;29;20048;-82
2023/07/14 05:50:54;;;;;;;6.53;4.50;;;;;;;22.27;100.00;101616.63;4894048;29;20053;-81
2023/07/14 05:53:21;;;;;;;8.65;4.65;;;;;;;22.37;100.00;101621.66;4888532;29;20052;-82
2023/07/14 05:55:49;;;;;;;8.07;4.03;;;;;;;22.52;100.00;101616.72;4839241;29;20058;-81
2023/07/14 05:58:16;;;;;;;11.50;4.35;;;;;;;22.68;100.00;101615.22;4856425;29;20377;-81
2023/07/14 06:00:44;;;;;;;6.88;4.00;;;;;;;22.84;100.00;101603.94;4857711;29;20080;-82
2023/07/14 06:03:16;;;;;;;5.75;3.50;;;;;;;23.04;100.00;101613.97;4894516;29;20055;-81
2023/07/14 06:05:46;;;;;;;9.73;3.85;;;;;;;23.15;100.00;101606.41;4851820;29;20060;-83
2023/07/14 06:08:14;;;;;;;8.43;4.18;;;;;;;23.27;100.00;101610.44;4888218;29;20060;-81
2023/07/14 06:10:42;;;;;;;10.32;3.70;;;;;;;23.33;100.00;101610.22;4852120;29;20172;-81
2023/07/14 06:13:09;;;;;;;6.25;3.70;;;;;;;23.33;100.00;101600.34;4850087;29;20467;-82
2023/07/14 06:15:46;;;;;;;7.28;3.58;;;;;;;23.31;100.00;101607.59;4872742;29;20056;-81
2023/07/14 06:18:14;;;;;;;7.82;3.53;;;;;;;23.23;100.00;101609.69;4882585;29;20056;-82
2023/07/14 06:20:41;;;;;;;6.03;3.17;;;;;;;23.01;100.00;101603.34;4846085;29;20626;-81
2023/07/14 06:23:09;;;;;;;6.75;2.97;;;;;;;22.79;100.00;101606.78;4878103;29;20048;-81
2023/07/14 06:25:37;;;;;;;5.65;3.50;;;;;;;22.54;100.00;101604.97;4881280;29;20051;-82
2023/07/14 06:28:04;;;;;;;5.80;3.20;;;;;;;22.36;100.00;101605.59;4837142;29;20051;-82
2023/07/14 06:30:34;;;;;;;5.78;3.30;;;;;;;22.15;100.00;101605.34;4893161;29;20500;-81
2023/07/14 06:33:01;;;;;;;10.15;3.70;;;;;;;21.96;100.00;101602.38;4867134;29;20045;-80
2023/07/14 06:35:31;;;;;;;4.03;3.15;;;;;;;21.88;100.00;101595.53;4876651;29;20052;-80
2023/07/14 06:37:58;;;;;;;3.88;3.22;;;;;;;21.84;100.00;101597.44;4896272;29;20459;-81
2023/07/14 06:40:26;;;;;;;6.80;3.17;;;;;;;21.86;100.00;101589.34;4835077;29;20053;-80
2023/07/14 06:42:55;;;;;;;6.18;2.92;;;;;;;21.90;100.00;101594.56;4831181;29;20064;-80
2023/07/14 06:45:23;;;;;;;5.35;2.97;;;;;;;21.92;100.00;101595.38;4862532;29;20049;-80
2023/07/14 06:47:50;;;;;;;9.45;3.38;;;;;;;21.86;100.00;101595.59;4884859;29;20508;-80
2023/07/14 06:50:18;;;;;;;5.32;3.05;;;;;;;21.80;100.00;101593.97;4884946;29;20061;-81
2023/07/14 06:52:45;;;;;;;6.53;3.38;;;;;;;21.75;100.00;101593.22;4886906;29;20637;-80
2023/07/14 06:55:12;;;;;;;9.65;3.17;;;;;;;21.68;100.00;101591.69;4886474;29;20052;-81
2023/07/14 06:57:40;;;;;;;6.72;3.33;;;;;;;21.65;100.00;101586.41;4852504;29;20060;-80
2023/07/14 07:00:10;;;;;;;6.45;2.90;;;;;;;21.59;100.00;101592.84;4866949;29;20049;-81
2023/07/14 07:02:39;;;;;;;8.10;3.17;;;;;;;21.58;100.00;101590.22;4878445;29;20053;-81
2023/07/14 07:05:07;;;;;;;9.02;3.60;;;;;;;21.54;100.00;101578.69;4871951;29;20057;-80
2023/07/14 07:07:35;;;;;;;8.32;3.13;;;;;;;21.53;100.00;101587.69;4888647;29;20052;-80
2023/07/14 07:10:06;;;;;;;8.85;2.95;;;;;;;21.50;100.00;101585.09;4860043;29;20060;-80
2023/07/14 07:12:33;;;;;;;8.88;3.53;;;;;;;21.50;100.00;101586.91;4880981;29;20045;-80
2023/07/14 07:15:02;;;;;;;8.23;3.47;;;;;;;21.51;100.00;101588.63;4846137;29;20052;-80
2023/07/14 07:17:29;;;;;;;5.65;3.40;;;;;;;21.48;100.00;101586.94;4874010;29;20064;-80
2023/07/14 07:19:57;;;;;;;7.68;3.40;;;;;;;21.46;100.00;101585.25;4877562;29;20049;-80
2023/07/14 07:22:24;;;;;;;7.10;3.20;;;;;;;21.45;100.00;101581.66;4865561;29;20049;-80
2023/07/14 07:24:52;;;;;;;8.18;3.22;;;;;;;21.46;100.00;101575.38;4911860;29;20060;-81
2023/07/14 07:27:21;;;;;;;9.25;3.10;;;;;;;21.49;100.00;101580.63;4884876;29;20060;-80
2023/07/14 07:29:48;;;;;;;6.25;2.75;;;;;;;21.50;100.00;101568.13;4858776;29;20045;-79
2023/07/14 07:32:16;;;;;;;8.48;2.95;;;;;;;21.46;100.00;101570.03;4870668;29;20061;-80
2023/07/14 07:34:43;;;;;;;4.45;2.80;;;;;;;21.47;100.00;101569.06;4893532;29;20045;-81
2023/07/14 07:37:11;;;;;;;6.30;3.05;;;;;;;21.49;100.00;101561.00;4879581;29;20056;-80
2023/07/14 07:39:40;;;;;;;5.72;3.00;;;;;;;21.49;100.00;101561.84;4882966;29;20100;-80
2023/07/14 07:42:09;;;;;;;7.05;2.70;;;;;;;21.53;100.00;101559.97;4891724;29;20096;-80
2023/07/14 07:44:36;;;;;;;3.80;2.53;;;;;;;21.53;100.00;101559.97;4850410;29;20048;-80
2023/07/14 07:47:04;;;;;;;7.07;2.65;;;;;;;21.55;100.00;101555.44;4870468;29;20064;-80
2023/07/14 07:49:31;;;;;;;6.22;3.00;;;;;;;21.64;100.00;101555.13;4894505;29;20060;-80
2023/07/14 07:51:58;;;;;;;6.47;3.13;;;;;;;21.70;100.00;101563.00;4866269;29;20049;-80
2023/07/14 07:54:26;;;;;;;10.90;3.83;;;;;;;21.75;100.00;101558.34;4858844;29;20059;-81
2023/07/14 07:56:53;;;;;;;6.65;3.25;;;;;;;21.78;100.00;101557.41;4885233;29;20044;-80
2023/07/14 07:59:21;;;;;;;5.20;2.67;;;;;;;21.74;100.00;101551.25;4848524;29;20055;-80
2023/07/14 08:01:49;;;;;;;6.43;2.90;;;;;;;21.71;100.00;101556.72;4845403;29;20059;-82
2023/07/14 08:04:18;;;;;;;9.43;2.65;;;;;;;21.70;100.00;101548.69;4886380;29;20049;-80
2023/07/14 08:06:46;;;;;;;8.57;2.88;;;;;;;21.73;100.00;101546.81;4882772;29;20053;-82
2023/07/14 08:09:13;;;;;;;4.72;2.22;;;;;;;21.75;100.00;101547.63;4861611;29;20047;-82
2023/07/14 08:11:41;;;;;;;6.35;2.75;;;;;;;21.75;100.00;101539.56;4864746;29;20064;-80
2023/07/14 08:14:16;;;;;;;6.30;2.95;;;;;;;21.72;100.00;101554.88;4919160;29;20048;-81
2023/07/14 08:16:43;;;;;;;5.45;2.25;;;;;;;21.74;100.00;101553.94;4859373;29;20053;-80
2023/07/14 08:19:15;;;;;;;5.95;2.88;;;;;;;21.79;100.00;101556.47;4882589;29;20057;-79
2023/07/14 08:21:42;;;;;;;4.40;2.90;;;;;;;21.77;100.00;101548.44;4898573;29;20422;-81
2023/07/14 08:24:10;;;;;;;5.57;2.45;;;;;;;21.73;100.00;101551.31;4863048;29;20053;-80
2023/07/14 08:26:39;;;;;;;3.67;2.63;;;;;;;21.69;100.00;101544.28;4884598;29;20056;-81
2023/07/14 08:29:08;;;;;;;6.80;2.63;;;;;;;21.67;100.00;101541.66;4896404;29;20076;-82
2023/07/14 08:31:36;;;;;;;5.05;2.30;;;;;;;21.66;100.00;101547.91;4875327;29;20048;-80
2023/07/14 08:34:04;;;;;;;3.80;2.28;;;;;;;21.65;100.00;101543.50;4877173;29;20053;-79
2023/07/14 08:36:31;;;;;;;5.90;2.35;;;;;;;21.63;100.00;101550.72;4894862;29;20068;-79
2023/07/14 08:38:59;;;;;;;4.40;2.85;;;;;;;21.60;100.00;101540.06;4827921;29;20046;-79
2023/07/14 08:41:29;;;;;;;8.85;2.63;;;;;;;21.68;100.00;101539.81;4827631;29;20053;-78
2023/07/14 08:44:12;;;;;;;5.82;2.30;;;;;;;21.73;100.00;101540.56;4841868;29;20064;-81
2023/07/14 08:46:49;;;;;;;4.68;2.60;;;;;;;21.82;100.00;101539.41;4835436;29;20061;-80
2023/07/14 08:49:24;;;;;;;7.85;2.40;;;;;;;;;;4844153;29;20434;-80
2023/07/14 08:52:08;;;;;;;6.88;3.28;;;;;;;;;;4828493;29;20057;-81
2023/07/14 08:54:50;;;;;;;7.38;2.63;;;;;;;21.94;100.00;101539.84;4869012;29;20046;-80
2023/07/14 08:57:23;;;;;;;4.13;2.20;;;;;;;22.02;100.00;101541.41;4857191;29;20132;-80
2023/07/14 09:00:03;;;;;;;6.53;2.65;;;;;;;22.02;100.00;101531.53;4850744;29;20653;-80
2023/07/14 09:02:31;;;;;;;;;;;;;;;21.97;100.00;101538.91;4825844;29;20042;-80
2023/07/14 09:05:08;;;;;;;5.22;2.33;;;;;;;21.87;100.00;101529.38;4847544;29;19924;-80
2023/07/14 09:07:37;;;;;;;4.10;1.98;;;;;;;21.71;100.00;101532.56;4850710;29;20053;-80
2023/07/14 09:10:05;;;;;;;4.38;1.90;;;;;;;21.70;100.00;101530.84;4846672;29;20375;-80
2023/07/14 09:12:47;;;;;;;4.28;2.08;;;;;;;21.73;100.00;101513.75;4839164;29;20090;-81
2023/07/14 09:15:23;;;;;;;2.85;2.28;;;;;;;21.77;100.00;101516.25;4851600;29;20056;-80
2023/07/14 09:18:04;;;;;;;2.85;1.98;;;;;;;21.85;100.00;101501.72;4823455;29;20068;-81
2023/07/14 09:20:39;;;;;;;3.63;1.50;;;;;;;21.97;100.00;101502.19;4858077;29;20053;-80
2023/07/14 09:23:13;;;;;;;4.22;2.17;;;;;;;22.06;100.00;101501.00;4822327;29;20096;-80
2023/07/14 09:26:15;;;;;;;2.85;2.08;;;;;;;22.10;100.00;101509.84;4853077;29;20068;-81
2023/07/14 09:28:47;;;;;;;5.50;1.75;;;;;;;22.18;100.00;101505.94;4842485;29;20049;-83
2023/07/14 09:31:37;;;;;;;3.65;2.28;;;;;;;22.30;100.00;101504.66;4837162;29;20053;-82
2023/07/14 09:34:20;;;;;;;3.95;2.03;;;;;;;22.42;100.00;101508.75;4824762;29;20084;-83
2023/07/14 09:36:48;;;;;;;2.70;2.10;;;;;;;22.53;98.86;101511.91;4860043;29;20050;-82
2023/07/14 09:39:36;;;;;;;3.80;2.00;;;;;;;22.55;95.08;101498.41;4860493;29;20048;-83
2023/07/14 09:42:11;;;;;;;3.33;1.90;;;;;;;22.59;95.84;101497.38;4900045;29;20376;-82
2023/07/14 09:44:38;;;;;;;5.40;2.40;;;;;;;22.58;96.72;101498.31;4876540;29;20058;-83
2023/07/14 09:47:06;;;;;;;2.72;2.10;;;;;;;22.66;95.66;101495.34;4869112;29;20056;-83
2023/07/14 09:49:40;;;;;;;3.65;1.98;;;;;;;22.74;94.56;101498.59;4864349;29;20060;-83
2023/07/14 09:52:20;;;;;;;2.97;2.20;;;;;;;22.82;93.32;101485.78;4894228;29;20500;-84
2023/07/14 09:54:56;;;;;;;;;;;;;;;22.81;88.59;101493.88;4852047;29;20055;-84
2023/07/14 09:57:25;;;;;;;3.83;1.70;;;;;;;22.72;93.06;101498.69;4894504;29;20326;-83
2023/07/14 10:00:25;;;;;;;3.45;1.85;;;;;;;22.70;88.92;101496.97;4891057;29;20052;-82
2023/07/14 10:03:09;;;;;;;4.00;1.70;;;;;;;22.73;90.90;101488.81;4865310;29;20056;-82
2023/07/14 10:05:46;;;;;;;2.20;1.90;;;;;;;22.66;88.88;101482.78;4888099;29;20048;-85
2023/07/14 10:08:28;;;;;;;3.75;2.35;;;;;;;22.55;88.12;101488.56;4896440;29;20060;-80
2023/07/14 10:10:58;;;;;;;2.60;1.92;;;;;;;22.54;91.48;101477.88;4881772;29;20041;-85
2023/07/14 10:13:28;;;;;;;3.30;2.25;;;;;;;22.51;90.70;101478.88;4863862;29;20060;-87
2023/07/14 10:16:12;;;;;;;2.97;1.95;;;;;;;22.53;89.19;101473.41;4877904;29;20056;-85
2023/07/14 10:19:11;;;;;;;5.40;2.30;;;;;;;22.47;89.36;101474.50;4883971;29;20073;-84
2023/07/14 10:21:49;;;;;;;;;;;;;;;22.56;87.76;101471.50;4889571;29;20053;-86
2023/07/14 10:24:18;;;;;;;3.67;2.20;;;;;;;22.63;89.11;101465.88;4881792;29;19935;-85
2023/07/14 10:26:51;;;;;;;3.75;2.05;;;;;;;22.62;88.92;101462.34;4883612;29;20060;-85
2023/07/14 10:29:22;;;;;;;2.08;1.92;;;;;;;22.63;88.18;101465.88;4899400;29;20060;-84
2023/07/14 10:31:58;;;;;;;4.93;1.95;;;;;;;22.66;88.71;101461.28;4877601;29;20519;-84
2023/07/14 10:34:55;;;;;;;4.15;2.03;;;;;;;22.84;87.70;101456.16;4883981;29;20048;-85
2023/07/14 10:37:34;;;;;;;3.97;1.65;;;;;;;23.01;88.40;101452.81;4894578;29;20067;-85
2023/07/14 10:40:10;;;;;;;3.75;1.92;;;;;;;23.13;85.80;101457.72;4882681;29;20490;-82
2023/07/14 10:42:46;;;;;;;3.72;2.13;;;;;;;23.22;85.48;101454.69;4871066;29;20082;-82
2023/07/14 10:45:15;;;;;;;1.80;1.60;;;;;;;23.30;85.33;101459.75;4882516;29;20727;-84
2023/07/14 10:47:51;;;;;;;2.50;2.00;;;;;;;23.42;84.80;101453.88;4902342;29;20423;-82
2023/07/14 10:50:43;;;;;;;2.15;1.85;;;;;;;23.52;79.61;101457.06;4868183;29;20080;-82
2023/07/14 10:53:20;;;;;;;3.85;2.28;;;;;;;23.63;82.76;101459.28;4883350;29;20056;-82
2023/07/14 10:55:55;;;;;;;2.22;2.03;;;;;;;23.74;81.26;101447.16;4857153;29;20057;-81
2023/07/14 10:58:32;;;;;;;2.83;1.95;;;;;;;23.70;80.21;101452.72;4892525;29;20067;-82
2023/07/14 11:01:05;;;;;;;1.90;1.77;;;;;;;23.70;80.63;101448.19;4883825;29;20044;-82
2023/07/14 11:03:44;;;;;;;2.33;1.80;;;;;;;23.81;79.73;101445.09;4882776;29;20045;-83
2023/07/14 11:06:28;;;;;;;4.70;2.40;;;;;;;23.79;79.11;101440.72;4862508;29;20057;-81
2023/07/14 11:08:57;;;;;;;4.22;2.55;;;;;;;23.82;81.50;101440.59;4886269;29;20048;-84
2023/07/14 11:11:48;;;;;;;2.78;2.13;;;;;;;23.85;79.67;101429.69;4853354;29;20056;-83
2023/07/14 11:14:22;;;;;;;2.83;1.70;;;;;;;23.88;79.21;101429.56;4894702;29;20059;-86
2023/07/14 11:17:05;;;;;;;3.63;2.30;;;;;;;23.85;80.15;101424.31;4887614;29;20065;-84
2023/07/14 11:19:48;;;;;;;3.75;1.83;;;;;;;23.70;79.66;101428.50;4905554;29;20044;-84
2023/07/14 11:22:55;;;;;;;3.60;2.00;;;;;;;23.69;79.66;101422.25;4872905;29;20048;-82
2023/07/14 11:25:46;;;;;;;2.25;2.00;;;;;;;23.80;78.78;101420.94;4894296;29;20055;-83
2023/07/14 11:28:40;;;;;;;3.38;2.40;;;;;;;23.96;78.18;101418.47;4890495;29;20060;-82
2023/07/14 11:31:51;;;;;;;2.65;2.03;;;;;;;24.26;77.64;101410.84;4890372;29;20048;-81
2023/07/14 11:34:27;;;;;;;3.58;2.10;;;;;;;24.28;77.24;101408.97;4887889;29;20060;-80
2023/07/14 11:37:26;;;;;;;2.67;1.98;;;;;;;24.15;77.99;101410.47;4892037;29;20071;-81
2023/07/14 11:39:58;;;;;;;4.13;2.45;;;;;;;24.06;78.98;101407.22;4846400;29;20040;-82